| time (UTC) | temp F | wind direction | speed knots | gust knots | rain 1hr in | rain 24hr in | rain mn in | humidity % | barometer mb |
| 20260509212723 | 64 | 330 | 3.5 | 5.2 | 0.00 | 0.16 | 0.16 | 71 | 1007.9 |
| 20260509212220 | 64 | 234 | 4.3 | 4.3 | 0.00 | 0.16 | 0.16 | 72 | 1007.6 |
| 20260509211716 | 64 | 251 | 6.1 | 7.8 | 0.00 | 0.16 | 0.16 | 71 | 1008.2 |
| 20260509211213 | 65 | 317 | 3.5 | 4.3 | 0.00 | 0.16 | 0.16 | 70 | 1008.0 |
| 20260509210709 | 65 | 286 | 1.7 | 2.6 | 0.00 | 0.16 | 0.16 | 73 | 1008.4 |
| 20260509210202 | 65 | 231 | 3.5 | 4.3 | 0.00 | 0.16 | 0.16 | 72 | 1008.4 |
| 20260509205702 | 65 | 310 | 2.6 | 4.3 | 0.00 | 0.16 | 0.16 | 71 | 1008.2 |
| 20260509205201 | 65 | 331 | 1.7 | 2.6 | 0.00 | 0.16 | 0.16 | 71 | 1008.6 |
| 20260509204658 | 65 | 239 | 4.3 | 5.2 | 0.00 | 0.16 | 0.16 | 70 | 1008.4 |
| 20260509204154 | 65 | 243 | 4.3 | 5.2 | 0.00 | 0.16 | 0.16 | 71 | 1008.5 |
| 20260509203650 | 66 | 269 | 2.6 | 2.6 | 0.00 | 0.16 | 0.16 | 72 | 1008.4 |
| 20260509203148 | 65 | 194 | 7.0 | 7.8 | 0.00 | 0.16 | 0.16 | 74 | 1008.5 |
| 20260509202643 | 65 | 230 | 4.3 | 7.0 | 0.00 | 0.16 | 0.16 | 74 | 1008.8 |
| 20260509202139 | 64 | 239 | 4.3 | 5.2 | 0.00 | 0.16 | 0.16 | 74 | 1008.8 |
| 20260509201634 | 64 | 310 | 4.3 | 7.0 | 0.00 | 0.16 | 0.16 | 75 | 1008.7 |
| 20260509201131 | 64 | 204 | 9.6 | 13.0 | 0.00 | 0.16 | 0.16 | 74 | 1008.9 |
| 20260509200626 | 63 | 206 | 2.6 | 4.3 | 0.00 | 0.16 | 0.16 | 77 | 1008.9 |
| 20260509200117 | 65 | 263 | 2.6 | 4.3 | 0.00 | 0.16 | 0.16 | 74 | 1008.9 |
| 20260509195613 | 66 | 319 | 0.9 | 2.6 | 0.00 | 0.16 | 0.16 | 69 | 1009.0 |
| 20260509195108 | 66 | 318 | 1.7 | 2.6 | 0.00 | 0.16 | 0.16 | 74 | 1009.3 |
| 20260509194607 | 64 | 319 | 0.9 | 1.7 | 0.00 | 0.16 | 0.16 | 72 | 1009.0 |
| 20260509194105 | 63 | 318 | 0.0 | 0.0 | 0.00 | 0.16 | 0.16 | 73 | 1009.0 |
| 20260509193601 | 64 | 320 | 2.6 | 2.6 | 0.00 | 0.16 | 0.16 | 77 | 1009.0 |
| 20260509193057 | 63 | 216 | 5.2 | 7.0 | 0.00 | 0.16 | 0.16 | 76 | 1008.9 |
| 20260509192554 | 62 | 231 | 2.6 | 4.3 | 0.00 | 0.16 | 0.16 | 79 | 1009.2 |
| 20260509192048 | 63 | 282 | 2.6 | 5.2 | 0.00 | 0.16 | 0.16 | 78 | 1009.3 |
| 20260509191543 | 61 | 253 | 2.6 | 2.6 | 0.00 | 0.16 | 0.16 | 80 | 1009.4 |
| 20260509191039 | 61 | 250 | 1.7 | 2.6 | 0.00 | 0.16 | 0.16 | 82 | 1009.4 |
| 20260509190536 | 62 | 269 | 2.6 | 4.3 | 0.00 | 0.16 | 0.16 | 80 | 1009.2 |
| 20260509190034 | 62 | 247 | 1.7 | 2.6 | 0.00 | 0.16 | 0.16 | 81 | 1009.2 |
| 20260509185531 | 63 | 331 | 2.6 | 2.6 | 0.00 | 0.16 | 0.16 | 80 | 1009.3 |
| 20260509185027 | 62 | 306 | 3.5 | 5.2 | 0.00 | 0.16 | 0.16 | 83 | 1009.2 |
| 20260509184526 | 62 | 198 | 5.2 | 10.4 | 0.00 | 0.16 | 0.16 | 82 | 1009.6 |
| 20260509184022 | 62 | 307 | 1.7 | 2.6 | 0.00 | 0.16 | 0.16 | 83 | 1009.5 |
| 20260509183517 | 62 | 289 | 3.5 | 4.3 | 0.00 | 0.16 | 0.16 | 83 | 1009.6 |
| 20260509183013 | 60 | 237 | 6.1 | 7.8 | 0.00 | 0.16 | 0.16 | 87 | 1009.5 |
| 20260509182510 | 59 | 258 | 6.1 | 9.6 | 0.00 | 0.16 | 0.16 | 86 | 1009.5 |
| 20260509182007 | 60 | 228 | 4.3 | 5.2 | 0.00 | 0.16 | 0.16 | 86 | 1009.6 |
| 20260509181505 | 61 | 237 | 4.3 | 5.2 | 0.00 | 0.16 | 0.16 | 88 | 1009.5 |
| 20260509181002 | 59 | 203 | 7.0 | 7.8 | 0.00 | 0.16 | 0.16 | 89 | 1009.6 |
| 20260509180457 | 59 | 327 | 2.6 | 2.6 | 0.00 | 0.16 | 0.16 | 89 | 1009.6 |
| 20260509175955 | 60 | 317 | 0.9 | 1.7 | 0.00 | 0.16 | 0.16 | 88 | 1009.6 |
| 20260509175451 | 60 | 315 | 4.3 | 5.2 | 0.00 | 0.16 | 0.16 | 89 | 1009.6 |
| 20260509174947 | 60 | 80 | 2.6 | 5.2 | 0.00 | 0.16 | 0.16 | 87 | 1009.6 |
| 20260509174443 | 59 | 231 | 4.3 | 5.2 | 0.00 | 0.16 | 0.16 | 92 | 1009.6 |
| 20260509173938 | 59 | 337 | 0.0 | 1.7 | 0.00 | 0.16 | 0.16 | 92 | 1009.8 |
| 20260509173433 | 58 | 312 | 1.7 | 2.6 | 0.00 | 0.16 | 0.16 | 93 | 1009.9 |
| 20260509172930 | 58 | 247 | 2.6 | 4.3 | 0.00 | 0.16 | 0.16 | 93 | 1009.9 |
| 20260509172427 | 58 | 314 | 1.7 | 1.7 | 0.00 | 0.16 | 0.16 | 93 | 1009.8 |
| 20260509171922 | 58 | 338 | 2.6 | 2.6 | 0.00 | 0.16 | 0.16 | 93 | 1009.8 |
| 20260509171419 | 58 | 341 | 0.0 | 0.0 | 0.00 | 0.16 | 0.16 | 94 | 1009.9 |
| 20260509170915 | 58 | 249 | 2.6 | 2.6 | 0.00 | 0.16 | 0.16 | 95 | 1009.8 |
| 20260509170410 | 57 | 332 | 0.0 | 0.0 | 0.00 | 0.16 | 0.16 | 96 | 1010.0 |
| 20260509165907 | 56 | 319 | 1.7 | 1.7 | 0.00 | 0.16 | 0.16 | 97 | 1010.0 |
| 20260509165400 | 55 | 336 | 0.0 | 1.7 | 0.00 | 0.16 | 0.16 | 98 | 1010.0 |
| 20260509164857 | 55 | 323 | 1.7 | 1.7 | 0.00 | 0.16 | 0.16 | 98 | 1009.9 |
| 20260509164352 | 55 | 333 | 0.0 | 0.0 | 0.00 | 0.16 | 0.16 | 99 | 1009.8 |
| 20260509163849 | 55 | 230 | 7.0 | 9.6 | 0.00 | 0.16 | 0.16 | 98 | 1009.7 |
| 20260509163346 | 56 | 262 | 1.7 | 2.6 | 0.00 | 0.16 | 0.16 | 98 | 1009.6 |
| 20260509162839 | 55 | 211 | 3.5 | 4.3 | 0.00 | 0.16 | 0.16 | 99 | 1009.9 |
| 20260509162332 | 55 | 290 | 1.7 | 2.6 | 0.00 | 0.16 | 0.16 | 99 | 1009.9 |
| 20260509161829 | 54 | 284 | 2.6 | 2.6 | 0.00 | 0.16 | 0.16 | 99 | 1009.9 |
| 20260509161325 | 54 | 268 | 2.6 | 4.3 | 0.00 | 0.16 | 0.16 | 99 | 1009.8 |
| 20260509160821 | 54 | 262 | 2.6 | 4.3 | 0.00 | 0.16 | 0.16 | 99 | 1009.7 |
| 20260509160317 | 53 | 318 | 2.6 | 4.3 | 0.00 | 0.16 | 0.16 | 99 | 1009.7 |
| 20260509155812 | 53 | 326 | 3.5 | 4.3 | 0.00 | 0.16 | 0.16 | 99 | 1009.6 |
| 20260509155309 | 53 | 263 | 3.5 | 4.3 | 0.00 | 0.16 | 0.16 | 99 | 1009.7 |
| 20260509154805 | 53 | 229 | 4.3 | 7.0 | 0.00 | 0.16 | 0.16 | 99 | 1009.6 |
| 20260509154302 | 52 | 343 | 0.0 | 0.0 | 0.00 | 0.16 | 0.16 | 99 | 1009.5 |
| 20260509153759 | 52 | 323 | 0.9 | 1.7 | 0.00 | 0.16 | 0.16 | 99 | 1009.9 |
| 20260509153255 | 51 | 291 | 1.7 | 1.7 | 0.00 | 0.16 | 0.16 | 99 | 1009.7 |
| 20260509152752 | 52 | 262 | 2.6 | 2.6 | 0.00 | 0.16 | 0.16 | 99 | 1009.6 |
| 20260509152248 | 52 | 212 | 3.5 | 5.2 | 0.00 | 0.16 | 0.16 | 99 | 1009.5 |
| 20260509151745 | 51 | 247 | 2.6 | 4.3 | 0.00 | 0.16 | 0.16 | 99 | 1009.6 |
| 20260509151242 | 51 | 220 | 1.7 | 2.6 | 0.00 | 0.16 | 0.16 | 99 | 1009.7 |
| 20260509150740 | 51 | 285 | 2.6 | 4.3 | 0.07 | 0.16 | 0.16 | 99 | 1009.6 |
| 20260509150238 | 51 | 258 | 1.7 | 2.6 | 0.07 | 0.16 | 0.16 | 99 | 1009.7 |
| 20260509145734 | 51 | 316 | 0.9 | 1.7 | 0.00 | 0.15 | 0.15 | 99 | 1009.7 |
| 20260509145229 | 51 | 319 | 1.7 | 2.6 | 0.00 | 0.15 | 0.15 | 99 | 1009.7 |
| 20260509144726 | 51 | 284 | 0.9 | 1.7 | 0.00 | 0.15 | 0.15 | 99 | 1009.6 |
| 20260509144222 | 51 | 321 | 0.9 | 1.7 | 0.00 | 0.15 | 0.15 | 99 | 1009.7 |
| 20260509143720 | 51 | 263 | 2.6 | 2.6 | 0.00 | 0.15 | 0.15 | 99 | 1009.7 |
| 20260509143217 | 51 | 301 | 2.6 | 2.6 | 0.00 | 0.15 | 0.15 | 99 | 1009.6 |
| 20260509142712 | 51 | 265 | 2.6 | 2.6 | 0.05 | 0.15 | 0.15 | 99 | 1009.7 |
| 20260509142209 | 51 | 320 | 1.7 | 2.6 | 0.05 | 0.15 | 0.15 | 99 | 1009.6 |
| 20260509141705 | 51 | 213 | 2.6 | 4.3 | 0.00 | 0.14 | 0.14 | 99 | 1009.6 |
| 20260509141203 | 51 | 313 | 1.7 | 2.6 | 0.00 | 0.14 | 0.14 | 99 | 1009.6 |
| 20260509140658 | 51 | 252 | 0.9 | 1.7 | 0.00 | 0.14 | 0.14 | 99 | 1009.8 |
| 20260509140156 | 50 | 284 | 2.6 | 2.6 | 0.00 | 0.14 | 0.14 | 99 | 1009.6 |
| 20260509135653 | 50 | 320 | 1.7 | 1.7 | 0.00 | 0.14 | 0.14 | 99 | 1009.9 |
| 20260509135152 | 50 | 285 | 2.6 | 2.6 | 0.00 | 0.14 | 0.14 | 99 | 1009.9 |
| 20260509134648 | 50 | 304 | 1.7 | 1.7 | 0.07 | 0.14 | 0.14 | 99 | 1009.7 |
| 20260509134145 | 50 | 276 | 0.9 | 1.7 | 0.07 | 0.14 | 0.14 | 99 | 1009.8 |
| 20260509133642 | 50 | 288 | 0.0 | 1.7 | 0.00 | 0.13 | 0.13 | 99 | 1009.9 |
| 20260509133139 | 50 | 286 | 0.9 | 2.6 | 0.00 | 0.13 | 0.13 | 99 | 1009.9 |
| 20260509132638 | 50 | 234 | 2.6 | 2.6 | 0.05 | 0.13 | 0.13 | 99 | 1009.9 |
| 20260509132136 | 50 | 278 | 4.3 | 5.2 | 0.05 | 0.13 | 0.13 | 99 | 1009.6 |
| 20260509131632 | 50 | 253 | 0.9 | 2.6 | 0.00 | 0.12 | 0.12 | 99 | 1009.9 |
| 20260509131129 | 50 | 309 | 2.6 | 4.3 | 0.00 | 0.12 | 0.12 | 99 | 1009.8 |
| 20260509130625 | 50 | 231 | 3.5 | 4.3 | 0.00 | 0.12 | 0.12 | 99 | 1009.7 |
| 20260509130121 | 50 | 203 | 5.2 | 7.8 | 0.00 | 0.12 | 0.12 | 99 | 1009.8 |
| 20260509125618 | 50 | 212 | 4.3 | 7.0 | 0.00 | 0.12 | 0.12 | 99 | 1009.9 |
| 20260509125114 | 50 | 232 | 4.3 | 7.0 | 0.00 | 0.12 | 0.12 | 99 | 1009.8 |
| 20260509124611 | 50 | 291 | 2.6 | 2.6 | 0.00 | 0.12 | 0.12 | 99 | 1009.8 |
| 20260509124108 | 50 | 216 | 4.3 | 5.2 | 0.00 | 0.12 | 0.12 | 99 | 1010.0 |
| 20260509123606 | 50 | 193 | 4.3 | 4.3 | 0.00 | 0.12 | 0.12 | 99 | 1010.0 |
| 20260509123103 | 50 | 8 | 0.0 | 0.0 | 0.00 | 0.12 | 0.12 | 99 | 1010.1 |
| 20260509122558 | 50 | 239 | 2.6 | 4.3 | 0.00 | 0.12 | 0.12 | 99 | 1010.1 |
| 20260509122056 | 49 | 239 | 4.3 | 5.2 | 0.00 | 0.12 | 0.12 | 99 | 1009.9 |
| 20260509121552 | 49 | 190 | 4.3 | 5.2 | 0.00 | 0.12 | 0.12 | 99 | 1010.0 |
| 20260509121050 | 49 | 227 | 3.5 | 5.2 | 0.00 | 0.12 | 0.12 | 99 | 1010.1 |
| 20260509120548 | 49 | 215 | 3.5 | 4.3 | 0.00 | 0.12 | 0.12 | 99 | 1010.1 |
| 20260509120046 | 49 | 219 | 2.6 | 4.3 | 0.00 | 0.12 | 0.12 | 99 | 1010.1 |
| 20260509115543 | 49 | 228 | 2.6 | 4.3 | 0.00 | 0.12 | 0.12 | 99 | 1010.1 |
| 20260509115041 | 49 | 221 | 2.6 | 2.6 | 0.07 | 0.12 | 0.12 | 99 | 1010.2 |
| 20260509114538 | 49 | 236 | 2.6 | 4.3 | 0.07 | 0.12 | 0.12 | 99 | 1010.1 |
| 20260509114037 | 48 | 224 | 2.6 | 4.3 | 0.00 | 0.11 | 0.11 | 99 | 1010.0 |
| 20260509113535 | 48 | 221 | 2.6 | 2.6 | 0.00 | 0.11 | 0.11 | 99 | 1010.1 |
| 20260509113033 | 48 | 210 | 2.6 | 4.3 | 0.00 | 0.11 | 0.11 | 99 | 1010.2 |
| 20260509112528 | 48 | 221 | 2.6 | 4.3 | 0.00 | 0.11 | 0.11 | 99 | 1010.1 |
| 20260509112026 | 48 | 185 | 2.6 | 2.6 | 0.07 | 0.11 | 0.11 | 99 | 1010.3 |
| 20260509111523 | 48 | 201 | 2.6 | 2.6 | 0.07 | 0.11 | 0.11 | 99 | 1010.0 |
| 20260509111020 | 48 | 219 | 3.5 | 4.3 | 0.00 | 0.10 | 0.10 | 99 | 1010.1 |
| 20260509110516 | 48 | 174 | 2.6 | 2.6 | 0.00 | 0.10 | 0.10 | 99 | 1009.9 |
| 20260509110014 | 48 | 197 | 3.5 | 4.3 | 0.00 | 0.10 | 0.10 | 99 | 1009.8 |
| 20260509105512 | 48 | 270 | 1.7 | 2.6 | 0.00 | 0.10 | 0.10 | 99 | 1009.8 |
| 20260509105009 | 48 | 179 | 2.6 | 4.3 | 0.00 | 0.10 | 0.10 | 99 | 1009.9 |
| 20260509104506 | 47 | 171 | 4.3 | 5.2 | 0.00 | 0.10 | 0.10 | 99 | 1010.1 |
| 20260509104003 | 47 | 192 | 2.6 | 2.6 | 0.00 | 0.10 | 0.10 | 99 | 1010.1 |
| 20260509103501 | 47 | 352 | 0.0 | 0.0 | 0.00 | 0.10 | 0.10 | 99 | 1010.1 |
| 20260509102959 | 47 | 20 | 0.0 | 1.7 | 0.05 | 0.10 | 0.10 | 99 | 1009.9 |
| 20260509102456 | 47 | 37 | 0.0 | 1.7 | 0.05 | 0.10 | 0.10 | 99 | 1009.9 |
| 20260509101952 | 47 | 37 | 1.7 | 2.6 | 0.00 | 0.09 | 0.09 | 99 | 1010.0 |
| 20260509101449 | 47 | 33 | 0.9 | 1.7 | 0.00 | 0.09 | 0.09 | 99 | 1010.0 |
| 20260509100946 | 47 | 43 | 0.0 | 1.7 | 0.00 | 0.09 | 0.09 | 99 | 1010.0 |
| 20260509100443 | 47 | 177 | 2.6 | 2.6 | 0.07 | 0.09 | 0.09 | 99 | 1010.3 |
| 20260509095939 | 47 | 11 | 0.0 | 0.0 | 0.07 | 0.09 | 0.09 | 99 | 1010.2 |
| 20260509095436 | 47 | 36 | 0.0 | 0.0 | 0.05 | 0.08 | 0.08 | 99 | 1010.5 |
| 20260509094933 | 47 | 357 | 0.0 | 0.0 | 0.12 | 0.08 | 0.08 | 99 | 1010.3 |
| 20260509094430 | 47 | 356 | 0.0 | 0.0 | 0.07 | 0.07 | 0.07 | 99 | 1010.6 |
| 20260509093928 | 47 | 356 | 0.0 | 0.0 | 0.00 | 0.06 | 0.06 | 99 | 1010.6 |
| 20260509093425 | 47 | 357 | 0.0 | 0.0 | 0.00 | 0.06 | 0.06 | 99 | 1010.3 |
| 20260509092923 | 47 | 20 | 0.0 | 0.0 | 0.05 | 0.06 | 0.06 | 99 | 1010.1 |
| 20260509092421 | 47 | 12 | 0.0 | 0.0 | 0.05 | 0.06 | 0.06 | 99 | 1010.8 |
| 20260509091919 | 47 | 0 | 0.0 | 0.0 | 0.00 | 0.05 | 0.05 | 99 | 1010.6 |
| 20260509091416 | 47 | 9 | 0.0 | 0.0 | 0.00 | 0.05 | 0.05 | 99 | 1010.6 |
| 20260509090913 | 47 | 344 | 0.0 | 1.7 | 0.07 | 0.05 | 0.05 | 99 | 1010.6 |
| 20260509090410 | 47 | 202 | 1.7 | 1.7 | 0.07 | 0.05 | 0.05 | 99 | 1010.7 |
| 20260509085908 | 47 | 203 | 0.9 | 1.7 | 0.00 | 0.04 | 0.04 | 99 | 1010.7 |
| 20260509085405 | 47 | 142 | 0.9 | 1.7 | 0.00 | 0.04 | 0.04 | 99 | 1010.7 |
| 20260509084900 | 47 | 142 | 0.0 | 0.0 | 0.00 | 0.04 | 0.04 | 99 | 1010.6 |
| 20260509084357 | 47 | 142 | 0.0 | 0.0 | 0.00 | 0.04 | 0.04 | 99 | 1010.9 |
| 20260509083855 | 47 | 142 | 0.0 | 0.0 | 0.05 | 0.04 | 0.04 | 99 | 1010.8 |
| 20260509083352 | 47 | 142 | 0.0 | 0.0 | 0.05 | 0.04 | 0.04 | 99 | 1011.0 |
| 20260509082849 | 47 | 142 | 0.0 | 0.0 | 0.00 | 0.03 | 0.03 | 99 | 1010.9 |
| 20260509082345 | 47 | 142 | 0.0 | 0.0 | 0.00 | 0.03 | 0.03 | 99 | 1011.0 |
| 20260509081842 | 47 | 142 | 0.0 | 1.7 | 0.00 | 0.03 | 0.03 | 99 | 1011.3 |
| 20260509081340 | 47 | 142 | 0.0 | 0.0 | 0.00 | 0.03 | 0.03 | 99 | 1011.0 |
| 20260509080838 | 47 | 142 | 0.0 | 0.0 | 0.00 | 0.03 | 0.03 | 99 | 1011.0 |
| 20260509080335 | 47 | 142 | 0.0 | 0.0 | 0.00 | 0.03 | 0.03 | 99 | 1010.9 |
| 20260509075833 | 47 | 142 | 0.0 | 1.7 | 0.07 | 0.03 | 0.03 | 99 | 1010.9 |
| 20260509075330 | 47 | 35 | 1.7 | 1.7 | 0.07 | 0.03 | 0.03 | 99 | 1010.9 |
| 20260509074827 | 47 | 109 | 0.9 | 1.7 | 0.00 | 0.02 | 0.02 | 99 | 1010.9 |
| 20260509074325 | 47 | 110 | 0.0 | 1.7 | 0.00 | 0.02 | 0.02 | 99 | 1010.9 |
| 20260509073821 | 47 | 110 | 0.0 | 1.7 | 0.00 | 0.02 | 0.02 | 99 | 1011.0 |
| 20260509073317 | 47 | 94 | 0.9 | 1.7 | 0.00 | 0.02 | 0.02 | 99 | 1011.0 |
| 20260509072814 | 47 | 303 | 1.7 | 2.6 | 0.00 | 0.02 | 0.02 | 99 | 1011.2 |
| 20260509072310 | 47 | 234 | 0.9 | 1.7 | 0.00 | 0.02 | 0.02 | 99 | 1011.1 |
| 20260509071807 | 47 | 147 | 1.7 | 1.7 | 0.00 | 0.02 | 0.02 | 99 | 1011.0 |
| 20260509071305 | 47 | 349 | 0.9 | 1.7 | 0.00 | 0.02 | 0.02 | 99 | 1011.0 |
| 20260509070801 | 47 | 80 | 1.7 | 1.7 | 0.00 | 0.02 | 0.02 | 99 | 1010.8 |
| 20260509070258 | 47 | 59 | 0.0 | 1.7 | 0.00 | 0.02 | 0.02 | 99 | 1010.8 |
| 20260509065754 | 47 | 76 | 1.7 | 1.7 | 0.00 | 0.02 | 0.02 | 99 | 1011.0 |
| 20260509065251 | 47 | 30 | 1.7 | 1.7 | 0.00 | 0.02 | 0.02 | 99 | 1010.5 |
| 20260509064747 | 47 | 93 | 1.7 | 2.6 | 0.00 | 0.02 | 0.02 | 99 | 1010.9 |
| 20260509064244 | 47 | 82 | 1.7 | 2.6 | 0.00 | 0.02 | 0.02 | 99 | 1010.9 |
| 20260509063742 | 47 | 11 | 0.0 | 0.0 | 0.00 | 0.02 | 0.02 | 99 | 1010.8 |
| 20260509063238 | 47 | 23 | 0.0 | 1.7 | 0.00 | 0.02 | 0.02 | 99 | 1011.1 |
| 20260509062735 | 47 | 4 | 0.0 | 0.0 | 0.00 | 0.02 | 0.02 | 99 | 1011.0 |
| 20260509062232 | 47 | 27 | 0.9 | 1.7 | 0.00 | 0.02 | 0.02 | 99 | 1011.4 |
| 20260509061729 | 47 | 8 | 0.0 | 0.0 | 0.00 | 0.02 | 0.02 | 99 | 1011.3 |
| 20260509061227 | 47 | 35 | 1.7 | 1.7 | 0.00 | 0.02 | 0.02 | 99 | 1011.4 |
| 20260509060724 | 47 | 90 | 0.9 | 1.7 | 0.00 | 0.02 | 0.02 | 99 | 1011.4 |
| 20260509060221 | 47 | 64 | 1.7 | 1.7 | 0.00 | 0.02 | 0.02 | 99 | 1011.5 |
| 20260509055716 | 47 | 5 | 0.0 | 1.7 | 0.00 | 0.02 | 0.02 | 99 | 1011.4 |
| 20260509055212 | 47 | 67 | 1.7 | 1.7 | 0.00 | 0.02 | 0.02 | 99 | 1011.8 |
| 20260509054709 | 47 | 80 | 2.6 | 4.3 | 0.05 | 0.02 | 0.02 | 99 | 1011.8 |
| 20260509054206 | 47 | 59 | 1.7 | 1.7 | 0.05 | 0.02 | 0.02 | 99 | 1012.0 |
| 20260509053705 | 48 | 7 | 0.0 | 0.0 | 0.00 | 0.01 | 0.01 | 99 | 1012.0 |
| 20260509053201 | 48 | 20 | 0.0 | 0.0 | 0.00 | 0.01 | 0.01 | 99 | 1011.9 |
| 20260509052659 | 48 | 21 | 0.0 | 1.7 | 0.00 | 0.01 | 0.01 | 99 | 1012.1 |
| 20260509052156 | 48 | 40 | 0.9 | 1.7 | 0.00 | 0.01 | 0.01 | 99 | 1012.2 |
| 20260509051654 | 48 | 21 | 0.9 | 1.7 | 0.00 | 0.01 | 0.01 | 99 | 1012.2 |
| 20260509051151 | 48 | 72 | 1.7 | 2.6 | 0.00 | 0.01 | 0.01 | 99 | 1012.1 |
| 20260509050648 | 48 | 81 | 1.7 | 2.6 | 0.00 | 0.01 | 0.01 | 99 | 1012.3 |
| 20260509050145 | 48 | 72 | 2.6 | 2.6 | 0.00 | 0.01 | 0.01 | 99 | 1012.3 |
| 20260509045642 | 48 | 88 | 4.3 | 4.3 | 0.00 | 0.01 | 0.01 | 99 | 1012.1 |
| 20260509045139 | 48 | 93 | 2.6 | 2.6 | 0.00 | 0.01 | 0.01 | 99 | 1012.2 |
| 20260509044636 | 48 | 84 | 1.7 | 2.6 | 0.00 | 0.01 | 0.01 | 99 | 1012.3 |
| 20260509044134 | 48 | 93 | 2.6 | 2.6 | 0.00 | 0.01 | 0.01 | 99 | 1012.2 |
| 20260509043630 | 48 | 12 | 0.0 | 0.0 | 0.00 | 0.01 | 0.01 | 99 | 1012.3 |
| 20260509043126 | 48 | 29 | 0.0 | 0.0 | 0.00 | 0.01 | 0.01 | 99 | 1012.6 |
| 20260509042622 | 48 | 68 | 1.7 | 2.6 | 0.00 | 0.01 | 0.01 | 99 | 1012.6 |
| 20260509042118 | 48 | 33 | 1.7 | 1.7 | 0.07 | 0.01 | 0.01 | 99 | 1012.8 |
| 20260509041615 | 48 | 74 | 2.6 | 2.6 | 0.07 | 0.01 | 0.01 | 99 | 1012.9 |
| 20260509041113 | 48 | 351 | 0.0 | 0.0 | 0.00 | 0.00 | 0.00 | 99 | 1013.1 |
| 20260509040611 | 48 | 357 | 0.0 | 0.0 | 0.00 | 0.00 | 0.00 | 99 | 1013.1 |
| 20260509040108 | 48 | 12 | 0.0 | 0.0 | 0.00 | 0.00 | 0.00 | 99 | 1012.8 |
| 20260509035604 | 48 | 108 | 1.7 | 2.6 | 0.05 | 0.21 | 0.21 | 99 | 1012.9 |
| 20260509035101 | 48 | 0 | 0.0 | 0.0 | 0.05 | 0.21 | 0.21 | 99 | 1013.1 |
| 20260509034559 | 48 | 127 | 0.0 | 0.0 | 0.00 | 0.20 | 0.20 | 99 | 1013.3 |
| 20260509034056 | 48 | 176 | 2.6 | 2.6 | 0.00 | 0.20 | 0.20 | 99 | 1013.3 |
| 20260509033553 | 48 | 41 | 0.9 | 1.7 | 0.07 | 0.20 | 0.20 | 99 | 1013.2 |
| 20260509033050 | 48 | 24 | 0.9 | 1.7 | 0.07 | 0.20 | 0.20 | 99 | 1013.3 |
| 20260509032547 | 48 | 11 | 0.9 | 1.7 | 0.00 | 0.19 | 0.19 | 99 | 1013.3 |
| 20260509032044 | 48 | 16 | 0.9 | 1.7 | 0.00 | 0.19 | 0.19 | 99 | 1013.4 |
| 20260509031542 | 48 | 143 | 1.7 | 2.6 | 0.07 | 0.19 | 0.19 | 99 | 1013.4 |
| 20260509031039 | 48 | 90 | 0.9 | 1.7 | 0.07 | 0.19 | 0.19 | 99 | 1013.7 |
| 20260509030537 | 48 | 264 | 0.0 | 0.0 | 0.00 | 0.18 | 0.18 | 99 | 1013.4 |
| 20260509030033 | 48 | 20 | 0.0 | 0.0 | 0.00 | 0.18 | 0.18 | 99 | 1013.6 |
| 20260509025530 | 48 | 19 | 0.0 | 0.0 | 0.05 | 0.18 | 0.18 | 99 | 1013.7 |
| 20260509025025 | 48 | 332 | 0.0 | 0.0 | 0.05 | 0.18 | 0.18 | 99 | 1013.8 |
| 20260509024521 | 48 | 355 | 0.0 | 0.0 | 0.00 | 0.17 | 0.17 | 99 | 1013.9 |
| 20260509024018 | 48 | 103 | 0.0 | 0.0 | 0.00 | 0.17 | 0.17 | 99 | 1013.9 |
| 20260509023515 | 48 | 353 | 0.0 | 0.0 | 0.07 | 0.17 | 0.17 | 99 | 1014.0 |
| 20260509023012 | 48 | 343 | 0.0 | 0.0 | 0.07 | 0.17 | 0.17 | 99 | 1014.1 |
| 20260509022508 | 48 | 343 | 0.0 | 0.0 | 0.00 | 0.16 | 0.16 | 99 | 1014.2 |
| 20260509022006 | 49 | 349 | 0.0 | 0.0 | 0.05 | 0.16 | 0.16 | 99 | 1014.0 |
| 20260509021503 | 49 | 344 | 0.0 | 0.0 | 0.12 | 0.16 | 0.16 | 99 | 1014.0 |
| 20260509021000 | 49 | 343 | 0.0 | 0.0 | 0.07 | 0.15 | 0.15 | 99 | 1014.0 |
| 20260509020458 | 49 | 337 | 0.0 | 0.0 | 0.00 | 0.14 | 0.14 | 99 | 1013.6 |
| 20260509015955 | 49 | 335 | 0.9 | 1.7 | 0.00 | 0.14 | 0.14 | 99 | 1013.5 |
| 20260509015454 | 49 | 354 | 0.0 | 0.0 | 0.05 | 0.14 | 0.14 | 99 | 1013.3 |
| 20260509014950 | 49 | 359 | 0.0 | 0.0 | 0.05 | 0.14 | 0.14 | 99 | 1013.1 |
| 20260509014447 | 49 | 39 | 1.7 | 1.7 | 0.00 | 0.13 | 0.13 | 99 | 1012.9 |
| 20260509013943 | 49 | 357 | 0.0 | 0.0 | 0.00 | 0.13 | 0.13 | 99 | 1013.2 |
| 20260509013440 | 49 | 2 | 0.0 | 0.0 | 0.07 | 0.13 | 0.13 | 99 | 1013.1 |
| 20260509012936 | 49 | 346 | 0.0 | 0.0 | 0.07 | 0.13 | 0.13 | 99 | 1012.8 |
| 20260509012433 | 49 | 62 | 1.7 | 1.7 | 0.00 | 0.12 | 0.12 | 99 | 1012.5 |
| 20260509011930 | 49 | 78 | 2.6 | 2.6 | 0.00 | 0.12 | 0.12 | 99 | 1012.9 |
| 20260509011427 | 49 | 17 | 0.9 | 1.7 | 0.00 | 0.12 | 0.12 | 99 | 1012.9 |
| 20260509010925 | 49 | 11 | 0.9 | 1.7 | 0.05 | 0.12 | 0.12 | 99 | 1012.9 |
| 20260509010422 | 49 | 36 | 0.0 | 0.0 | 0.05 | 0.12 | 0.12 | 99 | 1012.7 |
| 20260509005919 | 49 | 213 | 2.6 | 2.6 | 0.00 | 0.11 | 0.11 | 99 | 1012.7 |
| 20260509005417 | 49 | 39 | 0.0 | 0.0 | 0.00 | 0.11 | 0.11 | 99 | 1012.5 |
| 20260509004917 | 49 | 327 | 0.0 | 1.7 | 0.00 | 0.11 | 0.11 | 99 | 1012.7 |
| 20260509004414 | 49 | 186 | 2.6 | 2.6 | 0.00 | 0.11 | 0.11 | 99 | 1012.8 |
| 20260509003912 | 49 | 334 | 0.0 | 0.0 | 0.00 | 0.11 | 0.11 | 99 | 1012.7 |
| 20260509003409 | 49 | 10 | 0.0 | 0.0 | 0.00 | 0.11 | 0.11 | 99 | 1012.3 |
| 20260509002906 | 49 | 14 | 0.0 | 1.7 | 0.00 | 0.11 | 0.11 | 99 | 1012.3 |
| 20260509002404 | 49 | 349 | 0.0 | 0.0 | 0.00 | 0.11 | 0.11 | 99 | 1012.2 |
| 20260509001901 | 49 | 354 | 0.0 | 0.0 | 0.00 | 0.11 | 0.11 | 99 | 1012.2 |
| 20260509001357 | 49 | 343 | 0.0 | 0.0 | 0.00 | 0.11 | 0.11 | 99 | 1012.5 |
| 20260509000854 | 49 | 345 | 0.0 | 0.0 | 0.00 | 0.11 | 0.11 | 99 | 1012.3 |
| 20260509000352 | 49 | 347 | 0.0 | 0.0 | 0.00 | 0.11 | 0.11 | 99 | 1012.2 |
| 20260508235848 | 49 | 344 | 0.0 | 0.0 | 0.00 | 0.11 | 0.11 | 99 | 1012.3 |
| 20260508235345 | 49 | 344 | 0.0 | 0.0 | 0.00 | 0.11 | 0.11 | 99 | 1012.1 |
| 20260508234842 | 49 | 344 | 0.0 | 0.0 | 0.00 | 0.11 | 0.11 | 99 | 1011.9 |
| 20260508234338 | 49 | 341 | 0.0 | 0.0 | 0.00 | 0.11 | 0.11 | 99 | 1012.1 |
| 20260508233837 | 49 | 339 | 0.0 | 0.0 | 0.00 | 0.11 | 0.11 | 99 | 1011.9 |
| 20260508233336 | 49 | 299 | 1.7 | 1.7 | 0.00 | 0.11 | 0.11 | 99 | 1011.8 |
| 20260508232832 | 49 | 5 | 0.0 | 0.0 | 0.00 | 0.11 | 0.11 | 99 | 1011.8 |
| 20260508232329 | 50 | 10 | 0.0 | 0.0 | 0.00 | 0.11 | 0.11 | 99 | 1011.9 |
| 20260508231828 | 50 | 168 | 2.6 | 2.6 | 0.00 | 0.11 | 0.11 | 99 | 1011.7 |
| 20260508231324 | 49 | 285 | 1.7 | 1.7 | 0.00 | 0.11 | 0.11 | 98 | 1012.1 |
| 20260508230820 | 49 | 344 | 0.0 | 0.0 | 0.00 | 0.11 | 0.11 | 99 | 1012.3 |
| 20260508230317 | 49 | 326 | 0.0 | 0.0 | 0.00 | 0.11 | 0.11 | 99 | 1012.3 |
| 20260508225815 | 49 | 343 | 0.0 | 0.0 | 0.00 | 0.11 | 0.11 | 99 | 1012.6 |
| 20260508225311 | 49 | 343 | 0.0 | 0.0 | 0.00 | 0.11 | 0.11 | 99 | 1012.4 |
| 20260508224809 | 49 | 343 | 0.0 | 0.0 | 0.00 | 0.11 | 0.11 | 99 | 1012.5 |
| 20260508224306 | 49 | 345 | 0.0 | 0.0 | 0.00 | 0.11 | 0.11 | 99 | 1012.5 |
| 20260508223804 | 49 | 339 | 0.0 | 0.0 | 0.00 | 0.11 | 0.11 | 99 | 1012.5 |
| 20260508223301 | 49 | 344 | 0.0 | 0.0 | 0.00 | 0.11 | 0.11 | 99 | 1012.6 |
| 20260508222758 | 49 | 343 | 0.0 | 0.0 | 0.00 | 0.11 | 0.11 | 99 | 1012.7 |
| 20260508222255 | 49 | 340 | 0.0 | 0.0 | 0.00 | 0.11 | 0.11 | 99 | 1012.5 |
| 20260508221752 | 49 | 336 | 0.9 | 1.7 | 0.00 | 0.11 | 0.11 | 99 | 1012.5 |
| 20260508221247 | 49 | 341 | 0.0 | 0.0 | 0.00 | 0.11 | 0.11 | 99 | 1012.6 |
| 20260508220743 | 50 | 344 | 0.0 | 0.0 | 0.07 | 0.11 | 0.11 | 99 | 1012.5 |
| 20260508220240 | 50 | 343 | 0.0 | 0.0 | 0.07 | 0.11 | 0.11 | 99 | 1012.7 |
| 20260508215737 | 50 | 344 | 0.9 | 1.7 | 0.05 | 0.10 | 0.10 | 98 | 1012.8 |
| 20260508215233 | 50 | 62 | 1.7 | 2.6 | 0.12 | 0.10 | 0.10 | 98 | 1012.7 |
| 20260508214731 | 50 | 341 | 0.0 | 0.0 | 0.07 | 0.09 | 0.09 | 97 | 1012.7 |
| 20260508214228 | 50 | 340 | 0.0 | 0.0 | 0.05 | 0.08 | 0.08 | 95 | 1013.1 |
| 20260508213724 | 50 | 341 | 0.0 | 0.0 | 0.05 | 0.08 | 0.08 | 95 | 1013.2 |
| 20260508213221 | 50 | 343 | 0.0 | 0.0 | 0.07 | 0.07 | 0.07 | 93 | 1013.1 |